N49MR WARC-WARR
Flight info
| Callsign | N49MR |
|---|---|
| Flight time | N/A |
| Altitude | 9000 |
| Route | BA LASEM FOLLOW COASTLINE TO KJUDN |
| Aircraft | COL4/L-SDFG/L |
Departure
| Time | N/A |
|---|---|
| Airport | Ngloram Airport (WARC) |
Arrival
| Time | 2026-05-09 12:46 |
|---|---|
| Airport | Juanda International Airport (WARR) |
| Time | Latitude | Longitude | Altitude | Speed | Heading |
|---|---|---|---|---|---|
| 2026-05-09 12:06 | -6.82085 | 111.56833 | 9054 ft | 127 kts | 90° |
| 2026-05-09 12:07 | -6.82051 | 111.57723 | 9056 ft | 128 kts | 91° |
| 2026-05-09 12:07 | -6.82024 | 111.58619 | 9057 ft | 128 kts | 91° |
| 2026-05-09 12:07 | -6.81995 | 111.59517 | 9056 ft | 129 kts | 91° |
| 2026-05-09 12:07 | -6.81964 | 111.60418 | 9057 ft | 129 kts | 90° |
| 2026-05-09 12:08 | -6.81932 | 111.61318 | 9056 ft | 128 kts | 91° |
| 2026-05-09 12:08 | -6.81901 | 111.62215 | 9055 ft | 128 kts | 91° |
| 2026-05-09 12:08 | -6.81869 | 111.63111 | 9053 ft | 128 kts | 91° |
| 2026-05-09 12:08 | -6.81843 | 111.64008 | 9053 ft | 128 kts | 91° |
| 2026-05-09 12:09 | -6.81812 | 111.64908 | 9052 ft | 129 kts | 91° |
| 2026-05-09 12:09 | -6.81781 | 111.65806 | 9051 ft | 128 kts | 91° |
| 2026-05-09 12:09 | -6.81749 | 111.66702 | 9050 ft | 128 kts | 91° |
| 2026-05-09 12:10 | -6.81663 | 111.69411 | 9050 ft | 129 kts | 91° |
| 2026-05-09 12:10 | -6.81633 | 111.70316 | 9052 ft | 130 kts | 91° |
| 2026-05-09 12:10 | -6.81601 | 111.71222 | 9054 ft | 130 kts | 91° |
| 2026-05-09 12:11 | -6.81569 | 111.72128 | 9051 ft | 130 kts | 91° |
| 2026-05-09 12:11 | -6.81538 | 111.73031 | 9050 ft | 129 kts | 91° |
| 2026-05-09 12:11 | -6.81512 | 111.73934 | 9045 ft | 129 kts | 91° |
| 2026-05-09 12:11 | -6.81481 | 111.74837 | 9044 ft | 129 kts | 91° |
| 2026-05-09 12:12 | -6.81452 | 111.75734 | 9043 ft | 129 kts | 90° |
| 2026-05-09 12:12 | -6.81422 | 111.76634 | 9049 ft | 129 kts | 90° |
| 2026-05-09 12:12 | -6.81393 | 111.77532 | 9051 ft | 129 kts | 91° |
| 2026-05-09 12:12 | -6.81363 | 111.78434 | 9050 ft | 129 kts | 91° |
| 2026-05-09 12:13 | -6.81338 | 111.79340 | 9050 ft | 130 kts | 91° |
| 2026-05-09 12:13 | -6.81313 | 111.80279 | 8945 ft | 137 kts | 91° |
| 2026-05-09 12:13 | -6.81293 | 111.81225 | 8953 ft | 134 kts | 91° |
| 2026-05-09 12:13 | -6.81272 | 111.82163 | 8948 ft | 134 kts | 91° |
| 2026-05-09 12:14 | -6.81252 | 111.83094 | 8947 ft | 133 kts | 91° |
| 2026-05-09 12:14 | -6.81233 | 111.84024 | 8945 ft | 133 kts | 92° |
| 2026-05-09 12:14 | -6.81342 | 111.84939 | 8944 ft | 132 kts | 101° |
| 2026-05-09 12:14 | -6.81487 | 111.85852 | 8944 ft | 132 kts | 101° |
| 2026-05-09 12:15 | -6.81634 | 111.86760 | 8946 ft | 131 kts | 101° |
| 2026-05-09 12:15 | -6.81780 | 111.87669 | 8943 ft | 132 kts | 101° |
| 2026-05-09 12:15 | -6.81926 | 111.88583 | 8942 ft | 132 kts | 101° |
| 2026-05-09 12:15 | -6.82073 | 111.89500 | 8940 ft | 133 kts | 101° |
| 2026-05-09 12:16 | -6.82220 | 111.90418 | 8941 ft | 133 kts | 101° |
| 2026-05-09 12:16 | -6.82367 | 111.91335 | 8939 ft | 133 kts | 101° |
| 2026-05-09 12:16 | -6.82514 | 111.92249 | 8941 ft | 132 kts | 102° |
| 2026-05-09 12:16 | -6.82665 | 111.93164 | 8940 ft | 133 kts | 101° |
| 2026-05-09 12:17 | -6.82810 | 111.94081 | 8938 ft | 133 kts | 101° |
| 2026-05-09 12:17 | -6.82956 | 111.95000 | 8935 ft | 133 kts | 101° |
| 2026-05-09 12:17 | -6.83104 | 111.95923 | 8929 ft | 133 kts | 101° |
| 2026-05-09 12:17 | -6.83251 | 111.96843 | 8929 ft | 133 kts | 101° |
| 2026-05-09 12:18 | -6.83398 | 111.97765 | 8931 ft | 133 kts | 101° |
| 2026-05-09 12:18 | -6.83544 | 111.98682 | 8927 ft | 133 kts | 101° |
| 2026-05-09 12:18 | -6.83690 | 111.99599 | 8933 ft | 133 kts | 101° |
| 2026-05-09 12:18 | -6.83837 | 112.00521 | 8928 ft | 134 kts | 101° |
| 2026-05-09 12:19 | -6.83984 | 112.01445 | 8921 ft | 135 kts | 101° |
| 2026-05-09 12:19 | -6.84140 | 112.02406 | 8781 ft | 144 kts | 101° |
| 2026-05-09 12:19 | -6.84306 | 112.03411 | 8735 ft | 145 kts | 101° |
| 2026-05-09 12:19 | -6.84474 | 112.04412 | 8631 ft | 150 kts | 101° |
| 2026-05-09 12:20 | -6.84654 | 112.05463 | 8509 ft | 156 kts | 101° |
| 2026-05-09 12:20 | -6.84845 | 112.06556 | 8372 ft | 162 kts | 101° |
| 2026-05-09 12:20 | -6.85044 | 112.07687 | 8235 ft | 166 kts | 101° |
| 2026-05-09 12:20 | -6.85405 | 112.08793 | 8112 ft | 169 kts | 120° |
| 2026-05-09 12:21 | -6.86013 | 112.09826 | 7971 ft | 174 kts | 121° |
| 2026-05-09 12:21 | -6.86641 | 112.10877 | 7828 ft | 177 kts | 121° |
| 2026-05-09 12:21 | -6.87264 | 112.11960 | 7686 ft | 179 kts | 115° |
| 2026-05-09 12:21 | -6.87516 | 112.13181 | 7536 ft | 179 kts | 105° |
| 2026-05-09 12:22 | -6.88036 | 112.14348 | 7227 ft | 188 kts | 116° |
| 2026-05-09 12:22 | -6.88428 | 112.15112 | 7248 ft | 179 kts | 119° |
| 2026-05-09 12:22 | -6.89012 | 112.16190 | 7076 ft | 170 kts | 120° |
| 2026-05-09 12:22 | -6.89571 | 112.17145 | 7280 ft | 158 kts | 120° |
| 2026-05-09 12:23 | -6.90188 | 112.18042 | 7411 ft | 160 kts | 133° |
| 2026-05-09 12:23 | -6.90853 | 112.18967 | 7436 ft | 167 kts | 120° |
| 2026-05-09 12:23 | -6.91468 | 112.19980 | 7436 ft | 172 kts | 121° |
| 2026-05-09 12:23 | -6.92100 | 112.21013 | 7437 ft | 175 kts | 121° |
| 2026-05-09 12:24 | -6.92746 | 112.22079 | 7439 ft | 177 kts | 121° |
| 2026-05-09 12:24 | -6.93380 | 112.23125 | 7444 ft | 178 kts | 121° |
| 2026-05-09 12:24 | -6.94029 | 112.24193 | 7443 ft | 179 kts | 121° |
| 2026-05-09 12:24 | -6.94680 | 112.25266 | 7441 ft | 180 kts | 121° |
| 2026-05-09 12:25 | -6.95328 | 112.26343 | 7445 ft | 180 kts | 121° |
| 2026-05-09 12:25 | -6.95979 | 112.27417 | 7443 ft | 180 kts | 121° |
| 2026-05-09 12:25 | -6.96632 | 112.28497 | 7436 ft | 180 kts | 121° |
| 2026-05-09 12:25 | -6.97285 | 112.29570 | 7444 ft | 179 kts | 121° |
| 2026-05-09 12:26 | -6.97936 | 112.30635 | 7433 ft | 178 kts | 121° |
| 2026-05-09 12:26 | -6.98583 | 112.31698 | 7442 ft | 178 kts | 121° |
| 2026-05-09 12:26 | -6.99227 | 112.32765 | 7443 ft | 178 kts | 122° |
| 2026-05-09 12:26 | -6.99875 | 112.33830 | 7441 ft | 179 kts | 121° |
| 2026-05-09 12:27 | -7.00522 | 112.34905 | 7439 ft | 179 kts | 121° |
| 2026-05-09 12:27 | -7.01168 | 112.35976 | 7438 ft | 179 kts | 121° |
| 2026-05-09 12:27 | -7.01814 | 112.37044 | 7442 ft | 179 kts | 122° |
| 2026-05-09 12:27 | -7.02461 | 112.38118 | 7434 ft | 180 kts | 121° |
| 2026-05-09 12:28 | -7.03106 | 112.39195 | 7426 ft | 180 kts | 121° |
| 2026-05-09 12:28 | -7.03750 | 112.40277 | 7425 ft | 180 kts | 121° |
| 2026-05-09 12:28 | -7.04397 | 112.41359 | 7424 ft | 181 kts | 121° |
| 2026-05-09 12:28 | -7.05042 | 112.42449 | 7431 ft | 181 kts | 121° |
| 2026-05-09 12:29 | -7.05695 | 112.43542 | 7389 ft | 184 kts | 121° |
| 2026-05-09 12:29 | -7.06358 | 112.44664 | 7275 ft | 189 kts | 121° |
| 2026-05-09 12:29 | -7.07036 | 112.45806 | 7166 ft | 191 kts | 121° |
| 2026-05-09 12:29 | -7.07726 | 112.46957 | 7026 ft | 193 kts | 121° |
| 2026-05-09 12:30 | -7.08424 | 112.48122 | 6864 ft | 196 kts | 121° |
| 2026-05-09 12:30 | -7.09133 | 112.49293 | 6702 ft | 196 kts | 121° |
| 2026-05-09 12:30 | -7.10558 | 112.51651 | 6384 ft | 199 kts | 121° |
| 2026-05-09 12:31 | -7.11309 | 112.52817 | 6228 ft | 199 kts | 128° |
| 2026-05-09 12:31 | -7.13723 | 112.54042 | 5904 ft | 201 kts | 165° |
| 2026-05-09 12:31 | -7.15087 | 112.54365 | 5732 ft | 202 kts | 166° |
| 2026-05-09 12:32 | -7.16441 | 112.54723 | 5546 ft | 201 kts | 159° |
| 2026-05-09 12:32 | -7.17700 | 112.55336 | 5437 ft | 199 kts | 153° |
| 2026-05-09 12:32 | -7.18909 | 112.55969 | 5435 ft | 194 kts | 152° |
| 2026-05-09 12:32 | -7.20098 | 112.56596 | 5434 ft | 192 kts | 152° |
| 2026-05-09 12:33 | -7.21276 | 112.57219 | 5438 ft | 191 kts | 152° |
| 2026-05-09 12:33 | -7.22414 | 112.57895 | 5429 ft | 190 kts | 145° |
| 2026-05-09 12:33 | -7.23448 | 112.58714 | 5428 ft | 189 kts | 140° |
| 2026-05-09 12:33 | -7.24437 | 112.59567 | 5434 ft | 190 kts | 139° |
| 2026-05-09 12:34 | -7.25451 | 112.60440 | 5434 ft | 189 kts | 139° |
| 2026-05-09 12:34 | -7.26438 | 112.61285 | 5430 ft | 188 kts | 139° |
| 2026-05-09 12:34 | -7.27333 | 112.62235 | 5431 ft | 187 kts | 125° |
| 2026-05-09 12:34 | -7.28019 | 112.63346 | 5433 ft | 187 kts | 122° |
| 2026-05-09 12:35 | -7.28689 | 112.64468 | 5432 ft | 188 kts | 121° |
| 2026-05-09 12:35 | -7.29132 | 112.65676 | 5428 ft | 185 kts | 96° |
| 2026-05-09 12:35 | -7.29182 | 112.66986 | 5340 ft | 190 kts | 94° |
| 2026-05-09 12:35 | -7.29564 | 112.68218 | 5182 ft | 177 kts | 120° |
| 2026-05-09 12:36 | -7.30163 | 112.69255 | 5010 ft | 156 kts | 121° |
| 2026-05-09 12:36 | -7.30680 | 112.70143 | 4829 ft | 141 kts | 121° |
| 2026-05-09 12:36 | -7.31394 | 112.70745 | 4662 ft | 139 kts | 168° |
| 2026-05-09 12:36 | -7.32360 | 112.70764 | 4433 ft | 141 kts | 180° |
| 2026-05-09 12:37 | -7.33351 | 112.70746 | 4187 ft | 144 kts | 181° |
| 2026-05-09 12:37 | -7.34371 | 112.70710 | 3826 ft | 148 kts | 180° |
| 2026-05-09 12:37 | -7.35381 | 112.70551 | 3480 ft | 148 kts | 191° |
| 2026-05-09 12:37 | -7.36393 | 112.70344 | 3120 ft | 150 kts | 190° |
| 2026-05-09 12:38 | -7.37422 | 112.70137 | 2763 ft | 152 kts | 191° |
| 2026-05-09 12:38 | -7.38447 | 112.69938 | 2443 ft | 149 kts | 185° |
| 2026-05-09 12:38 | -7.39451 | 112.69715 | 2068 ft | 147 kts | 189° |
| 2026-05-09 12:38 | -7.40383 | 112.69461 | 2012 ft | 131 kts | 189° |
| 2026-05-09 12:39 | -7.41232 | 112.69216 | 2010 ft | 123 kts | 189° |
| 2026-05-09 12:39 | -7.42088 | 112.68964 | 2019 ft | 141 kts | 190° |
| 2026-05-09 12:39 | -7.43110 | 112.68729 | 2044 ft | 162 kts | 180° |
| 2026-05-09 12:39 | -7.44277 | 112.68837 | 2016 ft | 173 kts | 168° |
| 2026-05-09 12:40 | -7.45486 | 112.69009 | 2058 ft | 177 kts | 169° |
| 2026-05-09 12:40 | -7.46725 | 112.69199 | 1867 ft | 190 kts | 169° |
| 2026-05-09 12:40 | -7.47788 | 112.69657 | 1675 ft | 149 kts | 127° |
| 2026-05-09 12:40 | -7.48000 | 112.70571 | 1493 ft | 135 kts | 71° |
| 2026-05-09 12:41 | -7.47435 | 112.71295 | 1286 ft | 131 kts | 39° |
| 2026-05-09 12:41 | -7.46652 | 112.71733 | 1081 ft | 131 kts | 9° |
| 2026-05-09 12:41 | -7.45790 | 112.71952 | 971 ft | 125 kts | 12° |
| 2026-05-09 12:41 | -7.44957 | 112.72177 | 961 ft | 121 kts | 12° |
| 2026-05-09 12:42 | -7.44152 | 112.72387 | 959 ft | 119 kts | 11° |
| 2026-05-09 12:42 | -7.43375 | 112.72592 | 963 ft | 117 kts | 11° |
| 2026-05-09 12:42 | -7.42597 | 112.72833 | 950 ft | 118 kts | 19° |
| 2026-05-09 12:42 | -7.41844 | 112.73153 | 959 ft | 117 kts | 18° |
| 2026-05-09 12:43 | -7.41101 | 112.73472 | 959 ft | 115 kts | 19° |
| 2026-05-09 12:43 | -7.40378 | 112.73789 | 964 ft | 111 kts | 19° |
| 2026-05-09 12:43 | -7.39688 | 112.74098 | 954 ft | 106 kts | 19° |
| 2026-05-09 12:43 | -7.39001 | 112.74268 | 945 ft | 102 kts | 359° |
| 2026-05-09 12:44 | -7.38288 | 112.74347 | 939 ft | 104 kts | 2° |
| 2026-05-09 12:44 | -7.37745 | 112.74737 | 713 ft | 93 kts | 61° |
| 2026-05-09 12:44 | -7.37544 | 112.75305 | 487 ft | 83 kts | 71° |
| 2026-05-09 12:44 | -7.37535 | 112.75893 | 353 ft | 85 kts | 88° |
| 2026-05-09 12:45 | -7.37616 | 112.76471 | 243 ft | 82 kts | 92° |
| 2026-05-09 12:45 | -7.37707 | 112.77040 | 127 ft | 82 kts | 91° |
| 2026-05-09 12:45 | -7.37801 | 112.77591 | 28 ft | 76 kts | 90° |
| 2026-05-09 12:45 | -7.37880 | 112.78091 | 10 ft | 67 kts | 94° |
| 2026-05-09 12:46 | -7.37950 | 112.78467 | 9 ft | 42 kts | 99° |
| 2026-05-09 12:46 | -7.37981 | 112.78677 | 11 ft | 29 kts | 103° |
| 2026-05-09 12:46 | -7.37998 | 112.78812 | 11 ft | 11 kts | 92° |
| 2026-05-09 12:46 | -7.37933 | 112.78862 | 10 ft | 13 kts | 6° |
| 2026-05-09 12:47 | -7.37880 | 112.78870 | 10 ft | 0 kts | 6° |
| 2026-05-09 12:47 | -7.37879 | 112.78870 | 10 ft | 1 kts | 5° |
| 2026-05-09 12:47 | -7.37801 | 112.78881 | 10 ft | 17 kts | 12° |
| 2026-05-09 12:48 | -7.37688 | 112.78901 | 10 ft | 18 kts | 10° |
| 2026-05-09 12:48 | -7.37585 | 112.78917 | 10 ft | 8 kts | 9° |
| 2026-05-09 12:48 | -7.37552 | 112.78924 | 10 ft | 0 kts | 14° |
| 2026-05-09 12:49 | -7.37539 | 112.78900 | 10 ft | 6 kts | 277° |
| 2026-05-09 12:49 | -7.37539 | 112.78886 | 10 ft | 0 kts | 233° |
| 2026-05-09 12:49 | -7.37547 | 112.78883 | 10 ft | 1 kts | 175° |
| 2026-05-09 12:49 | -7.37549 | 112.78883 | 10 ft | 0 kts | 173° |